Giove Jet — IJNX — position and weather

sailwx.info

Track history (hours):
 
Tides and Currents Weather Stations Pressure Air Temp Water Temp Dewpoint Dewpoint Depression Visibility Wind Speed Wind Dir Waves Ship Positions

Giove Jet

Last reported at 2017-Jun-27 12:39 UTC. Time now 2017-Jun-28 02:09 UTC.
Position N 40°49' E 014°15'.

Length 33 m; draft 1.2 m.

Type: Ship. MMSI: 247049500.

Date/timePositionNaut miles runAvg speedWind from/ knotsBaromVisibWave heightAir tempDewpointWater temp
2017-Jun-27 12:39N 40°49' E 014°15'426.7
2017-Jun-27 12:30N 40°47' E 014°11'1119.5
2017-Jun-27 11:56N 40°45' E 013°56'0 0.0
2017-Jun-27 11:19N 40°45' E 013°56'0 0.3
2017-Jun-27 10:58N 40°45' E 013°56'1225.0
2017-Jun-27 10:30N 40°47' E 014°12'5 6.6
2017-Jun-27 09:46N 40°50' E 014°17'3 9.3
2017-Jun-27 09:29N 40°50' E 014°13'0 0.0
2017-Jun-27 08:58N 40°50' E 014°13'2 3.9
2017-Jun-27 08:25N 40°50' E 014°16'820.3
2017-Jun-27 08:00N 40°46' E 014°06'1 0.4
2017-Jun-27 06:22N 40°46' E 014°06'925.1
2017-Jun-27 06:00N 40°50' E 014°16'2 0.1
2017-Jun-25 16:24N 40°48' E 014°18'1128.3
2017-Jun-25 16:01N 40°38' E 014°22'1019.6
2017-Jun-25 15:29N 40°48' E 014°18'2 5.0
2017-Jun-25 15:00N 40°50' E 014°16'1313.1
2017-Jun-25 14:01N 40°38' E 014°23'918.5
2017-Jun-25 13:30N 40°47' E 014°19'4 6.0
2017-Jun-25 12:46N 40°50' E 014°15'2 6.3
2017-Jun-25 12:31N 40°50' E 014°17'1224.6
2017-Jun-25 12:00N 40°38' E 014°23'0 0.0
2017-Jun-25 11:30N 40°38' E 014°23'0 0.0
2017-Jun-25 11:00N 40°38' E 014°23'815.1
2017-Jun-25 10:30N 40°33' E 014°14'815.3
2017-Jun-25 10:00N 40°38' E 014°23'4 7.9
2017-Jun-25 09:31N 40°42' E 014°21'9 9.1
2017-Jun-25 08:32N 40°50' E 014°17'124.8
2017-Jun-25 08:30N 40°49' E 014°17'1224.9
2017-Jun-25 08:00N 40°38' E 014°23'510.0
2017-Jun-25 07:30N 40°43' E 014°20'915.4
2017-Jun-25 06:57N 40°50' E 014°15'1125.2
2017-Jun-25 06:30N 40°40' E 014°22'3 6.9
2017-Jun-25 06:00N 40°43' E 014°20'8 0.2
2017-Jun-23 14:37N 40°51' E 014°16'6 9.4
2017-Jun-23 14:01N 40°47' E 014°10'11 7.6
2017-Jun-23 12:35N 40°45' E 013°56'0 0.0
2017-Jun-23 12:30N 40°45' E 013°56'0 0.0
2017-Jun-23 12:00N 40°45' E 013°56'0 0.0
2017-Jun-23 11:03N 40°45' E 013°56'114.0
2017-Jun-23 10:58N 40°45' E 013°58'1124.3
2017-Jun-23 10:30N 40°47' E 014°12'4 5.9
2017-Jun-23 09:51N 40°50' E 014°15'1 0.2
2017-Jun-23 06:32N 40°51' E 014°16'0 0.0
2017-Jun-23 06:07N 40°51' E 014°16'1 9.0
2017-Jun-23 06:00N 40°50' E 014°17'1527.6
2017-Jun-23 05:29N 40°46' E 013°58'1 0.1
2017-Jun-22 16:37N 40°46' E 013°59'325.3
2017-Jun-22 16:30N 40°46' E 014°03'1120.6
2017-Jun-22 16:00N 40°50' E 014°16'1 2.1
2017-Jun-22 15:30N 40°50' E 014°17'1410.8
2017-Jun-22 14:12N 40°46' E 013°59'1318.9
2017-Jun-22 13:30N 40°50' E 014°15'0 0.0
2017-Jun-22 12:50N 40°50' E 014°15'413.5
2017-Jun-22 12:31N 40°47' E 014°11'6 3.5
2017-Jun-22 10:43N 40°46' E 014°03'627.7
2017-Jun-22 10:30N 40°47' E 014°12'9 3.5
2017-Jun-22 07:53N 40°46' E 013°60'5 4.0
2017-Jun-22 06:34N 40°46' E 014°07'429.7
2017-Jun-22 06:27N 40°47' E 014°11'4 0.2
2017-Jun-21 13:46N 40°48' E 014°16'2 6.2
2017-Jun-21 13:25N 40°50' E 014°13'  
Track history (hours):
 
Tides and Currents Weather Stations Pressure Air Temp Water Temp Dewpoint Dewpoint Depression Visibility Wind Speed Wind Dir Waves Ship Positions

Giove Jet

Last reported at 2017-Jun-27 12:39 UTC. Time now 2017-Jun-28 02:09 UTC.
Position N 40°49' E 014°15'.

Length 33 m; draft 1.2 m.

Type: Ship. MMSI: 247049500.

Date/timePositionNaut miles runAvg speedWind from/ knotsBaromVisibWave heightAir tempDewpointWater temp
2017-Jun-27 12:39N 40°49' E 014°15'426.7
2017-Jun-27 12:30N 40°47' E 014°11'1119.5
2017-Jun-27 11:56N 40°45' E 013°56'0 0.0
2017-Jun-27 11:19N 40°45' E 013°56'0 0.3
2017-Jun-27 10:58N 40°45' E 013°56'1225.0
2017-Jun-27 10:30N 40°47' E 014°12'5 6.6
2017-Jun-27 09:46N 40°50' E 014°17'3 9.3
2017-Jun-27 09:29N 40°50' E 014°13'0 0.0
2017-Jun-27 08:58N 40°50' E 014°13'2 3.9
2017-Jun-27 08:25N 40°50' E 014°16'820.3
2017-Jun-27 08:00N 40°46' E 014°06'1 0.4
2017-Jun-27 06:22N 40°46' E 014°06'925.1
2017-Jun-27 06:00N 40°50' E 014°16'2 0.1
2017-Jun-25 16:24N 40°48' E 014°18'1128.3
2017-Jun-25 16:01N 40°38' E 014°22'1019.6
2017-Jun-25 15:29N 40°48' E 014°18'2 5.0
2017-Jun-25 15:00N 40°50' E 014°16'1313.1
2017-Jun-25 14:01N 40°38' E 014°23'918.5
2017-Jun-25 13:30N 40°47' E 014°19'4 6.0
2017-Jun-25 12:46N 40°50' E 014°15'2 6.3
2017-Jun-25 12:31N 40°50' E 014°17'1224.6
2017-Jun-25 12:00N 40°38' E 014°23'0 0.0
2017-Jun-25 11:30N 40°38' E 014°23'0 0.0
2017-Jun-25 11:00N 40°38' E 014°23'815.1
2017-Jun-25 10:30N 40°33' E 014°14'815.3
2017-Jun-25 10:00N 40°38' E 014°23'4 7.9
2017-Jun-25 09:31N 40°42' E 014°21'9 9.1
2017-Jun-25 08:32N 40°50' E 014°17'124.8
2017-Jun-25 08:30N 40°49' E 014°17'1224.9
2017-Jun-25 08:00N 40°38' E 014°23'510.0
2017-Jun-25 07:30N 40°43' E 014°20'915.4
2017-Jun-25 06:57N 40°50' E 014°15'1125.2
2017-Jun-25 06:30N 40°40' E 014°22'3 6.9
2017-Jun-25 06:00N 40°43' E 014°20'8 0.2
2017-Jun-23 14:37N 40°51' E 014°16'6 9.4
2017-Jun-23 14:01N 40°47' E 014°10'11 7.6
2017-Jun-23 12:35N 40°45' E 013°56'0 0.0
2017-Jun-23 12:30N 40°45' E 013°56'0 0.0
2017-Jun-23 12:00N 40°45' E 013°56'0 0.0
2017-Jun-23 11:03N 40°45' E 013°56'114.0
2017-Jun-23 10:58N 40°45' E 013°58'1124.3
2017-Jun-23 10:30N 40°47' E 014°12'4 5.9
2017-Jun-23 09:51N 40°50' E 014°15'1 0.2
2017-Jun-23 06:32N 40°51' E 014°16'0 0.0
2017-Jun-23 06:07N 40°51' E 014°16'1 9.0
2017-Jun-23 06:00N 40°50' E 014°17'1527.6
2017-Jun-23 05:29N 40°46' E 013°58'1 0.1
2017-Jun-22 16:37N 40°46' E 013°59'325.3
2017-Jun-22 16:30N 40°46' E 014°03'1120.6
2017-Jun-22 16:00N 40°50' E 014°16'1 2.1
2017-Jun-22 15:30N 40°50' E 014°17'1410.8
2017-Jun-22 14:12N 40°46' E 013°59'1318.9
2017-Jun-22 13:30N 40°50' E 014°15'0 0.0
2017-Jun-22 12:50N 40°50' E 014°15'413.5
2017-Jun-22 12:31N 40°47' E 014°11'6 3.5
2017-Jun-22 10:43N 40°46' E 014°03'627.7
2017-Jun-22 10:30N 40°47' E 014°12'9 3.5
2017-Jun-22 07:53N 40°46' E 013°60'5 4.0
2017-Jun-22 06:34N 40°46' E 014°07'429.7
2017-Jun-22 06:27N 40°47' E 014°11'4 0.2
2017-Jun-21 13:46N 40°48' E 014°16'2 6.2
2017-Jun-21 13:25N 40°50' E 014°13'  

Dump ship's entire track history